Riverton, WY

2:02 AM MDT on August 23, 2014 (GMT -0600)
KWYRIVER2 | Change Station
CLOSE
Current Station
Personal Weather Station
Location: Riverton, WY
Elevation: 5405 ft
Nearby Weather Stations

Elev 5405 ft 43.08 °N, 108.52 °W | Updated 6 minutes ago

Light Rain
Light Rain
53.4 °F
Feels Like 53.4 °F
N
0.0
Wind Variable Wind from WSW

Today
High -- | Low -- °F
--% Chance of Precip.
Yesterday
High -- | Low -- °F
Precip. -- in
6:28 AM 8:03 PM
Waning Crescent, 5% visible
Pressure 29.86 in
Visibility 10.0 miles
Clouds Few 4700 ft
Overcast 6000 ft
Dew Point 51 °F
Humidity 91%
Rainfall 0.05 in
Snow Depth Not available.
UV 0.0 out of 12
Pollen 7.80 out of 12
Air Quality Not available.
Flu Activity Not available.
METAR KRIW 230753Z AUTO 25007KT 10SM -RA FEW047 OVC060 12/11 A3002 RMK AO2 RAE0654B23 SLP112 P0001 T01220106

More Conditions Fewer Conditions

Pressure 29.86 in
Visibility 10.0 miles
Clouds Few 4700 ft
Overcast 6000 ft
Dew Point 51 °F
Humidity 91%
Rainfall 0.05 in
Snow Depth Not available.
UV 0.0 out of 12
Pollen 7.80 out of 12
Air Quality Not available.
Flu Activity Not available.
METAR KRIW 230753Z AUTO 25007KT 10SM -RA FEW047 OVC060 12/11 A3002 RMK AO2 RAE0654B23 SLP112 P0001 T01220106

More Conditions Fewer Conditions

10-Day Weather Forecast

Almanac

Astronomy

Aug. 23, 2014 Rise Set
Actual Time 6:28 AM MDT 8:03 PM MDT
Civil Twilight 5:58 AM MDT 8:33 PM MDT
Nautical Twilight 5:22 AM MDT 9:09 PM MDT
Astronomical Twilight 4:43 AM MDT 9:48 PM MDT
Moon 4:46 AM MDT 6:50 PM MDT
Length of Visible Light 14h 35m
Length of Day
13h 35m
Tomorrow will be 2m 43s shorter.
Waning Crescent, 5% of the Moon is Illuminated
Today
Waning Crescent
Aug 25
New
Sep 2
First Quarter
Sep 8
Full
Sep 15
Last Quarter

Today's Extremes

State Highs State Lows

Community

WunderPhotos

Upload Photos

1,746,386 photos uploaded!

WunderBlogs® & News

By Dr. Jeff Masters
Director of Meteorology, Weather Underground
By Kari Strenfel
Meteorologist, Weather Underground
By Christopher C. Burt
Weather Historian, Weather Underground
August 23, 2014
August 23, 2014
August 22, 2014

Nearby

Snow Depth

Station Depth Elevation
Big Sandy Opening 1 in 9080 ft
New Fork Lake 0 in 8340 ft
Kendall R.S. 1 in 7740 ft
Loomis Park 0 in 8240 ft
Gros Ventre Summit 0 in 8750 ft

Earthquake Activity

City Distance Mag. Time & Date
No recent earthquake activity has been reported nearby.
Minimum magnitude displayed is 2.5.

Coastal Water Temperatures

Place Temperature
No Stations Reporting

Nearby Weather Stations